Warren, RI (02885)

12:22 PM EDT on August 30, 2015 (GMT -0400)
South of Downtown Warren | | Change Station
CLOSE
Current Station
Personal Weather Station
Location: Warren, RI
Elevation: 47 ft
Nearby Weather Stations

Elev 47 ft 41.72 °N, 71.28 °W | Updated 9 seconds ago

Clear
Clear
84.0 °F
Feels Like 88 °F
N
0.9
Wind Variable Wind from SSE
Gusts 6.0 mph

Today
High -- | Low -- °F
--% Chance of Precip.
Yesterday
High -- | Low -- °F
Precip. -- in
6:08 AM 7:22 PM
Full, 99% visible
Pressure 30.08 in
Visibility 10.0 miles
Clouds Few 5000 ft
Scattered Clouds 12000 ft
Scattered Clouds 25000 ft
Heat Index 88 °F
Dew Point 69 °F
Humidity 60%
Rainfall 0.00 in
Snow Depth Not available.
UV 4.3 out of 12
Pollen 9.90 out of 12
Air Quality Not available.
Flu Activity Not available.
METAR KPVD 301551Z COR 25010KT 210V270 10SM FEW050 SCT120 SCT250 29/15 A3008 RMK AO2 SLP185 T02940150
Pressure 30.08 in
Visibility 10.0 miles
Clouds Few 5000 ft
Scattered Clouds 12000 ft
Scattered Clouds 25000 ft
Heat Index 88 °F
Dew Point 69 °F
Humidity 60%
Rainfall 0.00 in
Snow Depth Not available.
UV 4.3 out of 12
Pollen 9.90 out of 12
Air Quality Not available.
Flu Activity Not available.
METAR KPVD 301551Z COR 25010KT 210V270 10SM FEW050 SCT120 SCT250 29/15 A3008 RMK AO2 SLP185 T02940150

10-Day Weather Forecast

×

Almanac

Astronomy

Aug. 30, 2015 Rise Set
Actual Time
Civil Twilight
Nautical Twilight
Astronomical Twilight
Moon
Length of Visible Light
Length of Day
Tomorrow will be .
, % of the Moon is Illuminated

Today's Extremes

State Highs State Lows

Community

WunderPhotos

Upload Photos

1,851,005 photos uploaded!

WunderBlogs® & News

Nearby

Air Quality

  Air Quality AQ Index Pollutant
Not available.

Snow Depth

Station Depth Elevation

Earthquake Activity

City Distance Mag. Time & Date
Minimum magnitude displayed is 2.5.

Coastal Water Temperatures

Place Temperature

Stations

Nearby Weather Stations

Station Location Temp. Windchill Dew Point Humidity Wind Precip. Elev Updated Type